Time;durP1;ratioP1;P1;durP2;ratioP2;P2;SDS_P1;SDS_P2;PMS_P1;PMS_P2;Temp;Humidity;BMP_temperature;BMP_pressure;BME280_temperature;BME280_humidity;BME280_pressure;Samples;Min_cycle;Max_cycle;Signal;HPM_P1;HPM_P2
2022/06/01 00:02:15;;;;;;;16.13;12.82;;;10.20;99.90;;;;;;5012387;28;20438;-88
2022/06/01 00:04:41;;;;;;;16.70;13.75;;;10.20;99.90;;;;;;5024210;28;20103;-87
2022/06/01 00:07:07;;;;;;;16.90;13.45;;;10.20;99.90;;;;;;5009921;28;20057;-87
2022/06/01 00:09:32;;;;;;;15.55;13.23;;;10.10;99.90;;;;;;4981155;28;20045;-87
2022/06/01 00:11:58;;;;;;;17.08;13.18;;;10.20;99.90;;;;;;5029348;28;20045;-87
2022/06/01 00:14:24;;;;;;;17.83;13.52;;;10.20;99.90;;;;;;5020436;28;20049;-88
2022/06/01 00:16:55;;;;;;;17.70;13.52;;;10.30;99.90;;;;;;5012720;28;20038;-86
2022/06/01 00:19:21;;;;;;;17.05;13.18;;;10.20;99.90;;;;;;4986943;28;20049;-87
2022/06/01 00:24:31;;;;;;;17.98;13.20;;;10.20;99.90;;;;;;5023712;28;20065;-87
2022/06/01 00:26:57;;;;;;;16.10;13.20;;;10.10;99.90;;;;;;4998469;28;20041;-87
2022/06/01 00:29:23;;;;;;;16.20;13.50;;;10.20;99.90;;;;;;5028189;28;20049;-87
2022/06/01 00:31:49;;;;;;;15.43;12.80;;;10.10;99.90;;;;;;5008418;28;20124;-87
2022/06/01 00:34:15;;;;;;;18.08;13.15;;;10.10;99.90;;;;;;5029481;28;20137;-87
2022/06/01 00:36:40;;;;;;;16.48;13.80;;;10.10;99.90;;;;;;5011982;28;20076;-87
2022/06/01 00:39:06;;;;;;;17.33;13.57;;;10.10;99.90;;;;;;5012891;28;20051;-88
2022/06/01 00:41:32;;;;;;;17.00;13.40;;;10.10;99.90;;;;;;5005457;28;20045;-88
2022/06/01 00:43:58;;;;;;;18.40;13.32;;;10.20;99.90;;;;;;5011726;28;20050;-87
2022/06/01 00:46:24;;;;;;;18.98;14.27;;;10.10;99.90;;;;;;4997814;28;20487;-88
2022/06/01 00:48:54;;;;;;;20.05;16.20;;;10.10;99.90;;;;;;4995349;28;20042;-88
2022/06/01 00:51:26;;;;;;;16.98;14.68;;;10.10;99.90;;;;;;5012943;28;20402;-87
2022/06/01 00:53:53;;;;;;;17.92;14.93;;;10.10;99.90;;;;;;5005526;28;20051;-88
2022/06/01 00:56:24;;;;;;;17.58;15.07;;;10.10;99.90;;;;;;5013423;28;20383;-87
2022/06/01 00:58:52;;;;;;;20.88;16.65;;;10.10;99.90;;;;;;5045146;28;20037;-87
2022/06/01 01:01:20;;;;;;;24.60;15.57;;;10.10;99.90;;;;;;5005971;28;20049;-87
2022/06/01 01:03:49;;;;;;;21.50;15.00;;;10.10;99.90;;;;;;5031266;28;20041;-88
2022/06/01 01:06:18;;;;;;;20.00;16.85;;;10.20;99.90;;;;;;5032893;28;20483;-87
2022/06/01 01:08:47;;;;;;;18.23;15.65;;;10.10;99.90;;;;;;5033199;28;20067;-87
2022/06/01 01:11:14;;;;;;;18.08;15.50;;;10.10;99.90;;;;;;5012693;28;20506;-88
2022/06/01 01:13:45;;;;;;;19.65;15.48;;;10.20;99.90;;;;;;5016702;28;20125;-87
2022/06/01 01:16:12;;;;;;;21.00;15.90;;;10.10;99.90;;;;;;5032218;28;20053;-88
2022/06/01 01:18:43;;;;;;;20.05;17.08;;;10.20;99.90;;;;;;5030853;28;20049;-88
2022/06/01 01:21:14;;;;;;;18.63;16.27;;;10.20;99.90;;;;;;5017067;28;20045;-87
2022/06/01 01:24:04;;;;;;;20.75;16.70;;;10.20;99.90;;;;;;5015792;28;20049;-87
2022/06/01 01:26:31;;;;;;;18.55;16.25;;;10.20;99.90;;;;;;5026294;28;20042;-88
2022/06/01 01:28:57;;;;;;;19.50;15.35;;;10.10;99.90;;;;;;5047500;28;20037;-87
2022/06/01 01:31:25;;;;;;;19.67;16.50;;;10.10;99.90;;;;;;5029941;28;20099;-87
2022/06/01 01:33:53;;;;;;;24.13;16.88;;;10.20;99.90;;;;;;5006321;28;20053;-88
2022/06/01 01:36:23;;;;;;;19.33;15.95;;;10.10;99.90;;;;;;5014193;28;20111;-87
2022/06/01 01:39:05;;;;;;;20.42;16.98;;;10.00;99.90;;;;;;5032129;28;20049;-88
2022/06/01 01:41:46;;;;;;;21.45;17.65;;;10.00;99.90;;;;;;5030622;28;20053;-87
2022/06/01 01:44:14;;;;;;;19.75;16.52;;;10.00;99.90;;;;;;5015666;28;20088;-88
2022/06/01 01:46:43;;;;;;;22.40;17.38;;;10.00;99.90;;;;;;5031291;28;20045;-87
2022/06/01 01:49:08;;;;;;;21.52;16.55;;;9.80;99.90;;;;;;5015370;28;20056;-87
2022/06/01 01:51:34;;;;;;;21.15;16.98;;;9.90;99.90;;;;;;5030813;28;20046;-88
2022/06/01 01:54:02;;;;;;;18.50;16.50;;;9.90;99.90;;;;;;5016224;28;20092;-87
2022/06/01 01:56:55;;;;;;;21.83;17.35;;;9.80;99.90;;;;;;5032801;28;20072;-87
2022/06/01 01:59:35;;;;;;;20.55;17.25;;;9.80;99.90;;;;;;5014550;28;20052;-87
2022/06/01 02:02:24;;;;;;;22.35;17.50;;;9.70;99.90;;;;;;5016342;28;20149;-87
2022/06/01 02:08:15;;;;;;;24.02;17.38;;;9.80;99.90;;;;;;5029675;28;20060;-87
2022/06/01 02:13:33;;;;;;;21.75;17.17;;;9.80;99.90;;;;;;5008119;28;20157;-88
2022/06/01 02:16:00;;;;;;;22.08;16.83;;;9.80;99.90;;;;;;5032304;28;20156;-88
2022/06/01 02:18:34;;;;;;;19.90;17.23;;;9.80;99.90;;;;;;5000086;28;20045;-88
2022/06/01 02:21:08;;;;;;;23.25;18.30;;;9.80;99.90;;;;;;5031792;28;20037;-87
2022/06/01 02:23:36;;;;;;;21.98;16.70;;;9.90;99.90;;;;;;5029715;28;20075;-87
2022/06/01 02:26:02;;;;;;;23.35;18.48;;;9.80;99.90;;;;;;5013988;28;20053;-87
2022/06/01 02:28:29;;;;;;;23.15;17.85;;;9.80;99.90;;;;;;5029079;28;20049;-88
2022/06/01 02:30:57;;;;;;;21.73;17.77;;;9.80;99.90;;;;;;4999196;28;20052;-87
2022/06/01 02:33:26;;;;;;;21.20;18.02;;;9.80;99.90;;;;;;5038743;28;20076;-88
2022/06/01 02:35:54;;;;;;;21.20;17.88;;;9.80;99.90;;;;;;5032675;28;20041;-88
2022/06/01 02:38:29;;;;;;;23.02;18.73;;;9.80;99.90;;;;;;5032091;28;20052;-88
2022/06/01 02:40:55;;;;;;;25.95;19.65;;;9.80;99.90;;;;;;5031589;28;20041;-86
2022/06/01 02:43:20;;;;;;;22.90;18.70;;;9.80;99.90;;;;;;5031202;28;20049;-87
2022/06/01 02:45:46;;;;;;;23.10;19.08;;;9.80;99.90;;;;;;5014885;28;20037;-87
2022/06/01 02:48:12;;;;;;;24.25;19.10;;;9.80;99.90;;;;;;4990349;28;20053;-87
2022/06/01 02:50:38;;;;;;;22.83;20.40;;;9.80;99.90;;;;;;5015136;28;20056;-87
2022/06/01 02:53:05;;;;;;;22.75;20.00;;;9.90;99.90;;;;;;5013983;28;20041;-87
2022/06/01 02:55:32;;;;;;;26.08;21.42;;;9.80;99.90;;;;;;5015382;28;20049;-88
2022/06/01 02:57:58;;;;;;;23.95;20.17;;;9.80;99.90;;;;;;5031071;28;20041;-88
2022/06/01 03:00:27;;;;;;;23.30;19.15;;;9.90;99.90;;;;;;5014898;28;20120;-87
2022/06/01 03:02:57;;;;;;;25.58;20.67;;;9.80;99.90;;;;;;5030405;28;20565;-87
2022/06/01 03:05:29;;;;;;;22.52;19.08;;;9.80;99.90;;;;;;5013707;28;20128;-88
2022/06/01 03:07:57;;;;;;;24.67;20.58;;;9.80;99.90;;;;;;5030977;28;20376;-87
2022/06/01 03:10:24;;;;;;;29.63;21.67;;;9.80;99.90;;;;;;5018253;28;20058;-88
2022/06/01 03:12:50;;;;;;;24.85;21.75;;;9.80;99.90;;;;;;5014481;28;20549;-87
2022/06/01 03:15:18;;;;;;;24.90;20.65;;;9.80;99.90;;;;;;5036042;28;20053;-88
2022/06/01 03:17:45;;;;;;;24.15;21.10;;;9.80;99.90;;;;;;5046297;28;20044;-88
2022/06/01 03:20:12;;;;;;;30.17;23.10;;;9.80;99.90;;;;;;5014044;28;20159;-87
2022/06/01 03:22:40;;;;;;;26.92;21.67;;;9.80;99.90;;;;;;5045158;28;20096;-87
2022/06/01 03:25:09;;;;;;;26.92;21.83;;;9.80;99.90;;;;;;5004843;28;20136;-87
2022/06/01 03:27:35;;;;;;;27.20;22.55;;;9.80;99.90;;;;;;5013924;28;20133;-86
2022/06/01 03:30:03;;;;;;;25.35;21.38;;;9.80;99.90;;;;;;5030221;28;20048;-86
2022/06/01 03:32:30;;;;;;;28.35;23.02;;;9.80;99.90;;;;;;5029692;28;20487;-86
2022/06/01 03:34:55;;;;;;;30.42;23.65;;;9.80;99.90;;;;;;5031032;28;20116;-87
2022/06/01 03:37:21;;;;;;;33.00;24.52;;;9.80;99.90;;;;;;5016923;28;20136;-86
2022/06/01 03:39:46;;;;;;;26.92;23.50;;;9.80;99.90;;;;;;5030253;28;20041;-87
2022/06/01 03:42:12;;;;;;;28.10;23.80;;;9.90;99.90;;;;;;5013133;28;20058;-87
2022/06/01 03:47:22;;;;;;;34.20;25.20;;;9.90;99.90;;;;;;5030107;28;20119;-87
2022/06/01 03:49:48;;;;;;;32.95;25.60;;;9.90;99.90;;;;;;5029666;28;20049;-87
2022/06/01 03:52:14;;;;;;;31.80;26.27;;;9.90;99.90;;;;;;4996577;28;20411;-88
2022/06/01 03:54:40;;;;;;;30.10;24.85;;;10.00;99.90;;;;;;4996914;28;20041;-87
2022/06/01 03:57:07;;;;;;;29.17;25.58;;;10.00;99.90;;;;;;5009802;28;20061;-88
2022/06/01 03:59:34;;;;;;;30.70;25.77;;;10.00;99.90;;;;;;5013682;28;20096;-88
2022/06/01 04:02:06;;;;;;;30.25;25.50;;;10.10;99.90;;;;;;5029067;28;20092;-88
2022/06/01 04:04:33;;;;;;;32.00;26.88;;;10.10;99.90;;;;;;5030110;28;20522;-87
2022/06/01 04:06:59;;;;;;;30.92;25.40;;;10.10;99.90;;;;;;5013365;28;20041;-87
2022/06/01 04:09:25;;;;;;;34.80;26.65;;;10.20;99.90;;;;;;5030118;28;20099;-86
2022/06/01 04:11:52;;;;;;;29.33;24.70;;;10.20;99.90;;;;;;5030011;28;20053;-87
2022/06/01 04:14:21;;;;;;;30.48;25.58;;;10.20;99.90;;;;;;5005107;28;20053;-87
2022/06/01 04:16:48;;;;;;;32.40;26.98;;;10.30;99.90;;;;;;5012882;28;20041;-87
2022/06/01 04:19:14;;;;;;;31.60;25.67;;;10.30;99.90;;;;;;5012790;28;20123;-87
2022/06/01 04:21:43;;;;;;;33.92;27.75;;;10.40;99.90;;;;;;5029695;28;20044;-87
2022/06/01 04:24:12;;;;;;;32.80;27.60;;;10.30;99.90;;;;;;5010868;28;20049;-87
2022/06/01 04:26:39;;;;;;;36.63;29.58;;;10.30;99.90;;;;;;5010383;28;20041;-87
2022/06/01 04:29:04;;;;;;;35.50;27.75;;;10.30;99.90;;;;;;5026327;28;20072;-87
2022/06/01 04:31:31;;;;;;;35.25;28.27;;;10.30;99.90;;;;;;5044864;28;20512;-88
2022/06/01 04:33:57;;;;;;;29.70;25.58;;;10.40;99.90;;;;;;5003651;28;20104;-87
2022/06/01 04:36:22;;;;;;;31.83;25.83;;;10.30;99.90;;;;;;5031244;28;20045;-86
2022/06/01 04:38:48;;;;;;;35.50;27.40;;;10.20;99.90;;;;;;5035803;28;20044;-88
2022/06/01 04:41:14;;;;;;;33.95;28.17;;;10.20;99.90;;;;;;5012435;28;20053;-87
2022/06/01 04:43:39;;;;;;;34.80;28.45;;;10.30;99.90;;;;;;5003191;28;20490;-87
2022/06/01 04:46:05;;;;;;;33.22;27.55;;;10.30;99.90;;;;;;5034057;28;20045;-87
2022/06/01 04:48:31;;;;;;;32.17;27.42;;;10.30;99.90;;;;;;5035735;28;20041;-87
2022/06/01 04:50:58;;;;;;;33.45;27.45;;;10.30;99.90;;;;;;5018835;28;20043;-89
2022/06/01 04:53:25;;;;;;;36.25;29.30;;;10.40;99.90;;;;;;5019676;28;20077;-88
2022/06/01 04:55:51;;;;;;;38.90;29.55;;;10.40;99.90;;;;;;5020029;28;20461;-88
2022/06/01 04:58:17;;;;;;;33.92;28.15;;;10.50;99.90;;;;;;5033902;28;20495;-88
2022/06/01 05:00:44;;;;;;;32.63;27.27;;;10.50;99.90;;;;;;5038615;28;20045;-88
2022/06/01 05:03:10;;;;;;;31.20;26.90;;;10.70;99.90;;;;;;5037200;28;20511;-88
2022/06/01 05:05:39;;;;;;;35.47;27.92;;;10.80;99.90;;;;;;5020273;28;20045;-87
2022/06/01 05:08:07;;;;;;;32.30;26.75;;;10.80;99.90;;;;;;5016523;28;20136;-87
2022/06/01 05:10:33;;;;;;;30.25;25.67;;;10.90;99.90;;;;;;5063770;28;20041;-87
2022/06/01 05:12:59;;;;;;;29.50;25.88;;;10.90;99.90;;;;;;5034345;28;20483;-86
2022/06/01 05:15:24;;;;;;;30.48;24.05;;;10.90;99.90;;;;;;5012704;28;20054;-88
2022/06/01 05:17:50;;;;;;;26.90;23.70;;;10.90;99.90;;;;;;5016600;28;20056;-88
2022/06/01 05:20:16;;;;;;;30.50;25.67;;;10.90;99.90;;;;;;5027717;28;20052;-89
2022/06/01 05:22:42;;;;;;;28.60;25.05;;;10.80;99.90;;;;;;5013953;28;20414;-88
2022/06/01 05:25:09;;;;;;;29.15;24.58;;;10.80;99.90;;;;;;5011502;28;20041;-90
2022/06/01 05:27:35;;;;;;;30.23;24.85;;;10.80;99.90;;;;;;5031407;28;20061;-88
2022/06/01 05:30:01;;;;;;;32.97;25.88;;;10.80;99.90;;;;;;5028800;28;20061;-87
2022/06/01 05:32:27;;;;;;;30.77;24.92;;;10.80;99.90;;;;;;4998596;28;20438;-87
2022/06/01 05:34:53;;;;;;;31.67;25.33;;;10.70;99.90;;;;;;5029468;28;21741;-88
2022/06/01 05:37:19;;;;;;;33.97;27.08;;;10.70;99.90;;;;;;5030462;28;20042;-86
2022/06/01 05:39:45;;;;;;;32.60;26.05;;;10.80;99.90;;;;;;5020055;28;20091;-86
2022/06/01 05:42:11;;;;;;;32.28;26.40;;;10.80;99.90;;;;;;5002988;28;20073;-86
2022/06/01 05:44:37;;;;;;;32.75;27.00;;;10.90;99.90;;;;;;5026305;28;20099;-88
2022/06/01 05:47:03;;;;;;;32.22;26.65;;;10.90;99.90;;;;;;5040241;28;20054;-88
2022/06/01 05:49:30;;;;;;;32.55;26.83;;;11.00;99.90;;;;;;5036612;28;20041;-87
2022/06/01 05:51:56;;;;;;;31.70;27.08;;;11.10;99.90;;;;;;5044472;28;20049;-88
2022/06/01 05:54:21;;;;;;;36.67;27.90;;;11.10;99.90;;;;;;4992944;28;20071;-89
2022/06/01 05:56:48;;;;;;;28.90;24.35;;;11.10;99.90;;;;;;5010096;28;20127;-89
2022/06/01 05:59:17;;;;;;;30.45;26.20;;;11.30;99.90;;;;;;5046594;28;20049;-89
2022/06/01 06:01:43;;;;;;;26.92;22.73;;;11.20;99.90;;;;;;5012177;28;20451;-87
2022/06/01 06:04:09;;;;;;;27.70;22.70;;;11.20;99.90;;;;;;5032491;28;20080;-88
2022/06/01 06:06:35;;;;;;;26.50;21.17;;;11.10;99.90;;;;;;4998902;28;20065;-85
2022/06/01 06:09:07;;;;;;;24.38;20.23;;;11.20;99.90;;;;;;5006523;28;20045;-87
2022/06/01 06:11:36;;;;;;;26.83;21.52;;;11.20;99.90;;;;;;5030914;28;20133;-91
2022/06/01 06:14:02;;;;;;;25.40;21.55;;;11.30;99.90;;;;;;5046778;28;20076;-89
2022/06/01 06:16:32;;;;;;;23.98;18.83;;;11.40;99.90;;;;;;5029773;28;20052;-90
2022/06/01 06:18:57;;;;;;;21.45;19.15;;;11.40;99.90;;;;;;5011118;28;20037;-90
2022/06/01 06:21:29;;;;;;;23.85;18.65;;;11.50;99.90;;;;;;5028357;28;20099;-90
2022/06/01 06:24:06;;;;;;;21.70;18.60;;;11.50;99.90;;;;;;5009411;28;20069;-88
2022/06/01 06:26:32;;;;;;;18.40;16.48;;;11.50;99.90;;;;;;5015012;28;20153;-89
2022/06/01 06:29:01;;;;;;;21.77;17.63;;;11.50;99.90;;;;;;5029017;28;20438;-88
2022/06/01 06:31:27;;;;;;;15.75;14.15;;;11.60;99.90;;;;;;4996846;28;20042;-88
2022/06/01 06:33:53;;;;;;;16.90;14.77;;;11.60;99.90;;;;;;5007791;28;20061;-88
2022/06/01 06:36:19;;;;;;;18.05;14.02;;;11.50;99.90;;;;;;5031649;28;20042;-88
2022/06/01 06:38:45;;;;;;;16.77;14.98;;;11.50;99.90;;;;;;5031608;28;20045;-88
2022/06/01 06:41:11;;;;;;;18.20;16.27;;;11.60;99.90;;;;;;5015410;28;20128;-89
2022/06/01 06:43:37;;;;;;;19.30;15.10;;;11.60;99.90;;;;;;5012216;28;20049;-89
2022/06/01 06:46:10;;;;;;;20.15;17.95;;;11.70;99.90;;;;;;5031749;28;20056;-88
2022/06/01 06:48:36;;;;;;;22.90;19.13;;;11.70;99.90;;;;;;5014239;28;20080;-88
2022/06/01 06:51:03;;;;;;;23.63;21.00;;;11.80;99.90;;;;;;5015577;28;20083;-88
2022/06/01 06:53:29;;;;;;;24.02;21.08;;;12.00;99.90;;;;;;5029972;28;20060;-88
2022/06/01 06:55:55;;;;;;;26.50;22.40;;;12.00;99.90;;;;;;4998989;28;20045;-88
2022/06/01 06:58:21;;;;;;;26.50;23.45;;;12.20;99.90;;;;;;5030404;28;20798;-88
2022/06/01 07:00:48;;;;;;;27.48;23.70;;;12.40;99.90;;;;;;5014071;28;20042;-88
2022/06/01 07:03:14;;;;;;;27.20;23.17;;;12.70;99.90;;;;;;5029793;28;20058;-88
2022/06/01 07:08:26;;;;;;;27.15;23.45;;;13.10;99.90;;;;;;5055769;28;20057;-87
2022/06/01 07:10:52;;;;;;;24.08;21.58;;;13.30;99.90;;;;;;5030439;28;20494;-87
2022/06/01 07:13:18;;;;;;;24.25;21.77;;;13.60;99.90;;;;;;5015026;28;20476;-89
2022/06/01 07:15:43;;;;;;;23.05;20.52;;;13.80;99.90;;;;;;4996958;28;20053;-86
2022/06/01 07:18:09;;;;;;;22.15;19.85;;;14.00;99.90;;;;;;5007066;28;20049;-88
2022/06/01 07:20:35;;;;;;;23.23;20.70;;;14.00;99.90;;;;;;5030788;28;20380;-87
2022/06/01 07:23:01;;;;;;;23.30;20.85;;;14.10;99.90;;;;;;5030625;28;20042;-87
2022/06/01 07:25:28;;;;;;;21.25;18.95;;;14.40;99.90;;;;;;5030415;28;20132;-88
2022/06/01 07:27:55;;;;;;;21.52;18.23;;;14.60;99.90;;;;;;5009820;28;20046;-88
2022/06/01 07:30:21;;;;;;;19.70;17.55;;;14.80;99.90;;;;;;5014247;28;20045;-89
2022/06/01 07:32:47;;;;;;;20.67;18.55;;;14.80;99.90;;;;;;4981553;28;20048;-87
2022/06/01 07:35:14;;;;;;;18.63;16.63;;;14.60;99.90;;;;;;5031331;28;20056;-86
2022/06/01 07:43:11;;;;;;;19.58;16.40;;;13.70;99.90;;;;;;5026943;28;20052;-89
2022/06/01 07:45:44;;;;;;;17.38;15.52;;;13.20;99.90;;;;;;5025175;28;20171;-87
2022/06/01 07:48:13;;;;;;;23.17;18.88;;;12.90;99.90;;;;;;5015772;28;20490;-87
2022/06/01 07:50:38;;;;;;;21.85;19.50;;;12.60;99.90;;;;;;5015211;28;20037;-88
2022/06/01 07:53:07;;;;;;;21.25;18.98;;;12.30;99.90;;;;;;5019684;28;20048;-86
2022/06/01 07:55:32;;;;;;;21.10;18.42;;;12.20;99.90;;;;;;5009693;28;20060;-87
2022/06/01 07:57:58;;;;;;;20.60;18.42;;;12.10;99.90;;;;;;4977722;28;20053;-88
2022/06/01 08:00:24;;;;;;;17.55;15.70;;;12.00;99.90;;;;;;4996063;28;20487;-87
2022/06/01 08:02:50;;;;;;;13.10;11.77;;;12.00;99.90;;;;;;5029091;28;20053;-88
2022/06/01 08:05:18;;;;;;;9.82;8.48;;;11.90;99.90;;;;;;4996883;28;20059;-88
2022/06/01 08:07:45;;;;;;;10.55;9.18;;;11.80;99.90;;;;;;5021469;28;20041;-89
2022/06/01 08:10:13;;;;;;;9.77;8.60;;;11.70;99.90;;;;;;5012926;28;20065;-88
2022/06/01 08:15:23;;;;;;;9.93;8.30;;;11.30;99.90;;;;;;5042074;28;20195;-88
2022/06/01 08:17:49;;;;;;;7.28;6.57;;;11.10;99.90;;;;;;4996892;28;20116;-89
2022/06/01 08:20:16;;;;;;;6.95;5.55;;;11.10;99.90;;;;;;5013160;28;20049;-88
2022/06/01 08:22:42;;;;;;;7.60;5.28;;;11.10;99.90;;;;;;5042364;28;20045;-88
2022/06/01 08:25:13;;;;;;;4.97;3.90;;;11.00;99.90;;;;;;5005344;28;20095;-88
2022/06/01 08:27:39;;;;;;;5.13;3.70;;;10.90;99.90;;;;;;5026083;28;20537;-89
2022/06/01 08:30:05;;;;;;;5.65;4.00;;;10.80;99.90;;;;;;5030662;28;20076;-87
2022/06/01 08:32:31;;;;;;;5.05;3.85;;;10.80;99.90;;;;;;5013293;28;20089;-88
2022/06/01 08:34:57;;;;;;;3.65;2.90;;;10.70;99.90;;;;;;5002028;28;20044;-88
2022/06/01 08:37:22;;;;;;;4.72;2.90;;;10.70;99.90;;;;;;5046979;28;20042;-88
2022/06/01 08:39:48;;;;;;;4.18;3.20;;;10.70;99.90;;;;;;5013878;28;20037;-88
2022/06/01 08:42:16;;;;;;;3.72;3.03;;;10.80;99.90;;;;;;4997605;28;20128;-88
2022/06/01 08:44:46;;;;;;;5.70;4.03;;;10.90;99.90;;;;;;5009230;28;20051;-88
2022/06/01 08:47:32;;;;;;;4.13;3.38;;;11.00;99.90;;;;;;5030552;28;20084;-88
2022/06/01 08:50:02;;;;;;;3.97;3.57;;;11.10;99.90;;;;;;5056033;28;20041;-88
2022/06/01 08:52:29;;;;;;;5.65;3.85;;;11.20;99.90;;;;;;5029825;28;20046;-88
2022/06/01 08:54:55;;;;;;;6.38;3.90;;;11.40;99.90;;;;;;5014105;28;20092;-88
2022/06/01 08:57:44;;;;;;;4.18;3.78;;;11.70;99.90;;;;;;5011051;28;20121;-87
2022/06/01 09:00:14;;;;;;;4.07;3.67;;;12.30;99.90;;;;;;5008626;28;20143;-88
2022/06/01 09:03:13;;;;;;;3.88;3.05;;;13.50;99.90;;;;;;5026849;28;20054;-88
2022/06/01 09:05:48;;;;;;;3.22;2.92;;;14.80;99.90;;;;;;5028362;28;20056;-87
2022/06/01 09:08:25;;;;;;;3.28;2.72;;;16.10;99.90;;;;;;5030365;28;20042;-88
2022/06/01 09:11:14;;;;;;;3.50;3.05;;;17.30;99.90;;;;;;5012321;28;20909;-88
2022/06/01 09:14:14;;;;;;;3.97;3.22;;;18.00;99.90;;;;;;5028956;28;20128;-88
2022/06/01 09:16:48;;;;;;;3.95;3.00;;;17.60;99.90;;;;;;5027887;28;20037;-87
2022/06/01 09:22:38;;;;;;;3.85;3.45;;;17.60;99.90;;;;;;5022986;28;20732;-89
2022/06/01 09:25:18;;;;;;;3.58;3.20;;;17.50;99.90;;;;;;5031689;28;20434;-89
2022/06/01 09:27:51;;;;;;;6.35;4.28;;;17.50;99.90;;;;;;5033249;28;20056;-89
2022/06/01 09:30:19;;;;;;;5.63;5.03;;;17.60;99.90;;;;;;5032459;28;20483;-89
2022/06/01 09:33:12;;;;;;;4.70;4.30;;;17.50;99.90;;;;;;5033355;28;20077;-89
2022/06/01 09:35:45;;;;;;;5.00;4.50;;;17.10;98.70;;;;;;5032253;28;20437;-90
2022/06/01 09:38:37;;;;;;;5.55;5.05;;;16.90;99.90;;;;;;5016228;28;20056;-91
2022/06/01 09:41:05;;;;;;;6.13;5.53;;;16.70;99.90;;;;;;5049656;28;20091;-90
2022/06/01 09:43:31;;;;;;;5.70;5.10;;;16.50;99.90;;;;;;5031570;28;20053;-89
2022/06/01 09:45:57;;;;;;;6.22;5.60;;;16.30;99.90;;;;;;5027543;28;20441;-89
2022/06/01 09:48:28;;;;;;;6.80;6.13;;;16.10;99.90;;;;;;4999827;28;20049;-90
2022/06/01 09:51:16;;;;;;;7.30;5.78;;;15.80;99.90;;;;;;5016279;28;20037;-92
2022/06/01 09:53:50;;;;;;;7.00;5.63;;;15.50;99.90;;;;;;5025845;28;20491;-91
2022/06/01 09:56:44;;;;;;;6.78;6.00;;;15.20;99.90;;;;;;5023552;28;20045;-90
2022/06/01 10:08:14;;;;;;;6.38;5.45;;;16.40;99.90;;;;;;5066310;28;20075;-92
2022/06/01 10:10:56;;;;;;;5.47;4.97;;;16.50;99.90;;;;;;5032333;28;20428;-92
2022/06/01 10:13:33;;;;;;;5.55;5.05;;;16.00;99.90;;;;;;5009269;28;20049;-92
2022/06/01 10:16:06;;;;;;;5.82;4.90;;;16.40;99.90;;;;;;4996682;28;20518;-91
2022/06/01 10:18:34;;;;;;;5.35;4.68;;;17.40;99.90;;;;;;5014051;28;20107;-90
2022/06/01 10:21:28;;;;;;;5.00;4.50;;;19.10;99.90;;;;;;5015921;28;20064;-89
2022/06/01 10:24:08;;;;;;;4.10;3.70;;;21.30;94.00;;;;;;5013291;28;20515;-90
2022/06/01 10:26:38;;;;;;;4.20;3.90;;;23.00;81.40;;;;;;5032772;28;20042;-90
2022/06/01 10:29:08;;;;;;;4.03;3.60;;;24.40;69.60;;;;;;5031479;28;20046;-91
2022/06/01 10:31:34;;;;;;;5.47;3.90;;;25.60;60.30;;;;;;5012911;28;20481;-91
2022/06/01 10:34:10;;;;;;;4.22;3.83;;;26.70;57.80;;;;;;5008939;28;20128;-90
2022/06/01 10:36:56;;;;;;;4.63;3.60;;;27.00;56.40;;;;;;5028552;28;20478;-90
2022/06/01 10:39:43;;;;;;;4.37;3.97;;;27.10;52.20;;;;;;5033978;28;20057;-93
2022/06/01 10:42:17;;;;;;;4.38;3.97;;;26.20;49.80;;;;;;5033628;28;20395;-91
2022/06/01 10:44:47;;;;;;;3.85;3.50;;;25.10;53.10;;;;;;5001985;28;20084;-90
2022/06/01 10:47:30;;;;;;;3.70;3.40;;;24.30;56.40;;;;;;5046954;28;20073;-91
2022/06/01 10:50:19;;;;;;;4.20;3.17;;;23.40;58.40;;;;;;4999899;28;20039;-90
2022/06/01 10:52:55;;;;;;;3.42;3.13;;;22.30;62.20;;;;;;5027548;28;20438;-92
2022/06/01 10:55:31;;;;;;;4.05;3.00;;;21.50;65.10;;;;;;5049323;28;20046;-92
2022/06/01 10:57:59;;;;;;;3.22;2.92;;;20.50;67.70;;;;;;5035284;28;20491;-91
2022/06/01 11:00:46;;;;;;;4.53;3.50;;;19.70;75.30;;;;;;5004875;28;20050;-92
2022/06/01 11:03:49;;;;;;;3.70;3.40;;;19.20;69.90;;;;;;5013846;28;20132;-93
2022/06/01 11:06:50;;;;;;;5.10;3.85;;;18.20;76.50;;;;;;5061841;28;20513;-92
2022/06/01 11:09:39;;;;;;;11.50;6.20;;;17.20;90.70;;;;;;5044531;28;20071;-90
2022/06/01 11:12:27;;;;;;;5.60;4.55;;;16.00;99.90;;;;;;5021858;28;20561;-92
2022/06/01 11:15:13;;;;;;;7.97;4.93;;;14.60;99.90;;;;;;5026050;28;20076;-93
2022/06/01 11:17:52;;;;;;;7.45;5.35;;;13.00;99.90;;;;;;5029893;28;20052;-94
2022/06/01 11:20:23;;;;;;;;;;;12.20;99.90;;;;;;5053220;28;20046;-96
2022/06/01 11:23:02;;;;;;;9.13;5.15;;;11.90;99.90;;;;;;5013946;28;19983;-93
2022/06/01 11:25:40;;;;;;;6.43;4.22;;;11.70;99.90;;;;;;5025538;28;20081;-95
2022/06/01 11:28:53;;;;;;;4.40;3.13;;;11.70;99.90;;;;;;5029947;28;20049;-94
2022/06/01 11:31:25;;;;;;;10.75;4.38;;;11.80;99.90;;;;;;5010102;28;20530;-93
2022/06/01 11:34:10;;;;;;;3.88;1.95;;;11.90;99.90;;;;;;5030665;28;20143;-94
2022/06/01 11:36:54;;;;;;;1.30;1.20;;;12.00;99.90;;;;;;5014048;28;20053;-91
2022/06/01 11:39:26;;;;;;;3.03;1.30;;;11.90;99.90;;;;;;5017679;28;20062;-92
2022/06/01 11:41:58;;;;;;;1.50;1.33;;;12.10;99.90;;;;;;5005971;28;20053;-90
2022/06/01 11:44:36;;;;;;;2.90;1.00;;;12.90;99.90;;;;;;5014719;28;20049;-91
2022/06/01 11:47:18;;;;;;;2.40;1.20;;;14.50;99.90;;;;;;5023398;28;20513;-91
2022/06/01 11:50:16;;;;;;;0.90;0.80;;;16.00;99.90;;;;;;5008428;28;20042;-92
2022/06/01 11:52:56;;;;;;;1.42;1.33;;;17.80;99.90;;;;;;5021956;28;20053;-89
2022/06/01 11:55:34;;;;;;;0.70;0.70;;;19.20;99.90;;;;;;5018425;28;20045;-89
2022/06/01 11:58:10;;;;;;;0.68;0.40;;;20.50;99.90;;;;;;5012540;28;20049;-90
2022/06/01 12:00:51;;;;;;;3.03;1.23;;;21.00;99.90;;;;;;5031157;28;20042;-91
2022/06/01 12:03:17;;;;;;;4.43;1.95;;;20.90;99.70;;;;;;5013093;28;20077;-90
2022/06/01 12:06:00;;;;;;;2.13;1.40;;;19.60;99.90;;;;;;5012611;28;20128;-89
2022/06/01 12:08:32;;;;;;;3.53;1.33;;;17.90;97.20;;;;;;5014009;28;20049;-90
2022/06/01 12:11:04;;;;;;;1.50;0.45;;;17.40;99.90;;;;;;5031299;28;20503;-91
2022/06/01 12:13:52;;;;;;;0.40;0.40;;;17.30;99.90;;;;;;5020282;28;20057;-89
2022/06/01 12:16:25;;;;;;;1.20;0.60;;;17.00;99.90;;;;;;5008872;28;20057;-89
2022/06/01 12:19:29;;;;;;;0.70;0.60;;;16.60;99.90;;;;;;5013817;28;20041;-89
2022/06/01 12:21:58;;;;;;;0.50;0.40;;;16.40;99.90;;;;;;5009138;28;20041;-90
2022/06/01 12:30:08;;;;;;;28.20;15.43;;;19.20;99.90;;;;;;5023199;28;20056;-89
2022/06/01 12:33:12;;;;;;;4.65;2.65;;;19.50;88.10;;;;;;5031241;28;20073;-89
2022/06/01 12:36:06;;;;;;;3.75;2.50;;;18.80;99.90;;;;;;4970025;28;20108;-89
2022/06/01 12:38:38;;;;;;;1.90;1.50;;;17.90;99.90;;;;;;4988416;28;20054;-91
2022/06/01 12:41:35;;;;;;;1.15;0.95;;;17.20;98.20;;;;;;4991811;28;20057;-89
2022/06/01 12:44:05;;;;;;;2.78;2.40;;;16.40;99.90;;;;;;5002618;28;20081;-90
2022/06/01 12:46:39;;;;;;;3.45;1.60;;;15.90;99.90;;;;;;5027925;28;20083;-91
2022/06/01 12:49:34;;;;;;;1.23;1.10;;;15.90;99.90;;;;;;5028533;28;20049;-89
2022/06/01 12:52:09;;;;;;;1.20;1.10;;;17.00;99.90;;;;;;5009188;28;20124;-89
2022/06/01 12:54:38;;;;;;;1.77;1.23;;;19.60;84.90;;;;;;5010189;28;20049;-88
2022/06/01 12:57:06;;;;;;;2.40;2.20;;;21.00;83.10;;;;;;5013883;28;20087;-89
2022/06/01 12:59:38;;;;;;;3.10;2.80;;;21.90;73.10;;;;;;5002070;28;20049;-90
2022/06/01 13:02:10;;;;;;;3.50;3.15;;;21.10;71.80;;;;;;5033253;28;20037;-87
2022/06/01 13:04:37;;;;;;;5.78;2.15;;;19.90;76.60;;;;;;5030318;28;20057;-88
2022/06/01 13:07:06;;;;;;;0.68;0.57;;;18.50;76.50;;;;;;5013652;28;20482;-87
2022/06/01 13:09:34;;;;;;;1.30;0.80;;;17.10;76.10;;;;;;5000610;28;20120;-87
2022/06/01 13:12:06;;;;;;;1.35;0.85;;;16.40;88.60;;;;;;5016270;28;20044;-91
2022/06/01 13:14:34;;;;;;;0.90;0.73;;;15.70;90.90;;;;;;5016270;28;20057;-88
2022/06/01 13:17:08;;;;;;;1.10;0.60;;;15.30;95.80;;;;;;4999411;28;20041;-90
2022/06/01 13:19:34;;;;;;;1.65;0.68;;;14.90;99.10;;;;;;5012126;28;20126;-91
2022/06/01 13:22:10;;;;;;;1.13;0.90;;;14.20;99.90;;;;;;5027348;28;20042;-92
2022/06/01 13:24:42;;;;;;;;;;;13.60;99.90;;;;;;5063200;28;20080;-91
2022/06/01 13:27:08;;;;;;;3.53;2.35;;;13.20;99.90;;;;;;5061202;28;19921;-90
2022/06/01 13:29:46;;;;;;;3.83;2.60;;;13.00;99.90;;;;;;5033348;28;20132;-92
2022/06/01 13:32:15;;;;;;;1.83;0.85;;;12.90;99.90;;;;;;5015765;28;20136;-90
2022/06/01 13:35:16;;;;;;;3.05;1.30;;;12.80;99.90;;;;;;5016542;28;20051;-88
2022/06/01 13:37:43;;;;;;;1.40;0.95;;;12.80;99.90;;;;;;5016785;28;20433;-89